Arcadia, Texas
Current Conditions -  °F | °C
As of 5:53 AM on Monday 24 Nov 2014 (Local Time) from KLVJ Reporting Station
Clear Clear  
Wind Chill: 54°   Ceiling: Unl
Heat Index: 54°   Visibility: 10mi
Dew Point: 42°   Wind: 6mph
Humidity: 64%   Direction: NA
Pressure: 29.92"   Gusts: NA
Location:  29.3723°N, 95.1328°W
Report Text: KLVJ 241153Z AUTO VRB05KT 10SM CLR 12/06 A2992 RMK AO2 SLP130 T01220056 10200 20122 53026
Loading
Personal Weather Stations






























Interactive Weather Map New forecast layout! Learn more

10-Day Weather Forecast

Advertisements
Track Severe Weather on mobile